Time;durP1;ratioP1;P1;durP2;ratioP2;P2;SDS_P1;SDS_P2;PMS_P1;PMS_P2;Temp;Humidity;BMP_temperature;BMP_pressure;BME280_temperature;BME280_humidity;BME280_pressure;Samples;Min_cycle;Max_cycle;Signal;HPM_P1;HPM_P2
2022/01/11 00:00:54;;;;;;;11.13;7.33;;;;;;;2.93;100.00;102060.56;5072184;28;20556;-72
2022/01/11 00:03:19;;;;;;;9.20;6.53;;;;;;;2.92;100.00;102058.09;5070775;28;20194;-72
2022/01/11 00:05:59;;;;;;;8.90;7.87;;;;;;;2.86;100.00;102061.66;5071752;28;20178;-72
2022/01/11 00:08:32;;;;;;;7.13;6.20;;;;;;;2.78;100.00;102057.38;5072126;28;20634;-72
2022/01/11 00:11:04;;;;;;;11.43;6.20;;;;;;;2.69;100.00;102058.69;5072040;28;20635;-72
2022/01/11 00:13:31;;;;;;;9.30;5.47;;;;;;;2.55;100.00;102049.84;5070384;28;20541;-72
2022/01/11 00:15:56;;;;;;;6.00;5.40;;;;;;;2.43;100.00;102051.59;5071728;28;20178;-72
2022/01/11 00:18:22;;;;;;;7.93;5.27;;;;;;;2.33;100.00;102052.09;5071908;28;20646;-72
2022/01/11 00:20:48;;;;;;;8.73;5.93;;;;;;;2.32;100.00;102065.78;5070337;28;20206;-72
2022/01/11 00:25:44;;;;;;;10.90;7.70;;;;;;;2.26;100.00;102064.78;5071705;28;20170;-72
2022/01/11 00:28:12;;;;;;;8.50;7.70;;;;;;;2.27;100.00;102052.13;5070403;28;20580;-72
2022/01/11 00:30:40;;;;;;;9.93;7.23;;;;;;;2.28;100.00;102054.59;5072016;28;20178;-71
2022/01/11 00:33:11;;;;;;;9.17;8.17;;;;;;;2.33;100.00;102068.28;5071507;28;20170;-73
2022/01/11 00:35:42;;;;;;;16.03;8.47;;;;;;;2.36;100.00;102073.22;5071381;28;20204;-72
2022/01/11 00:38:09;;;;;;;15.17;8.27;;;;;;;2.36;100.00;102072.41;5071795;28;20171;-72
2022/01/11 00:40:35;;;;;;;14.00;9.67;;;;;;;2.38;100.00;102071.13;5071296;28;20630;-72
2022/01/11 00:43:01;;;;;;;9.80;7.77;;;;;;;2.39;100.00;102071.97;5071193;28;20654;-72
2022/01/11 00:45:27;;;;;;;10.27;8.97;;;;;;;2.37;100.00;102082.97;5071159;28;20170;-72
2022/01/11 00:47:54;;;;;;;15.47;9.33;;;;;;;2.39;100.00;102075.47;5069961;28;20508;-72
2022/01/11 00:50:19;;;;;;;14.43;9.37;;;;;;;2.30;100.00;102079.47;5071414;28;20171;-72
2022/01/11 00:52:45;;;;;;;15.33;10.00;;;;;;;2.18;100.00;102077.69;5071307;28;20174;-72
2022/01/11 00:55:10;;;;;;;9.73;8.63;;;;;;;2.39;100.00;102080.88;5071052;28;20512;-72
2022/01/11 00:57:36;;;;;;;20.63;9.90;;;;;;;2.43;100.00;102073.16;5069750;28;20166;-72
2022/01/11 01:00:08;;;;;;;12.93;9.57;;;;;;;2.68;100.00;102073.22;5071087;28;20174;-72
2022/01/11 01:02:34;;;;;;;18.97;9.33;;;;;;;2.45;100.00;102083.75;5071096;28;20781;-72
2022/01/11 01:04:59;;;;;;;14.03;9.17;;;;;;;2.28;100.00;102084.25;5069491;28;20206;-72
2022/01/11 01:07:24;;;;;;;19.97;9.63;;;;;;;2.58;100.00;102089.88;5069601;28;20213;-72
2022/01/11 01:10:26;;;;;;;16.33;10.63;;;;;;;2.74;100.00;102101.19;5070990;28;20178;-72
2022/01/11 01:12:41;;;;;;;13.57;9.60;;;;;;;2.61;100.00;102089.47;5067666;28;20190;-72
2022/01/11 01:15:07;;;;;;;18.60;10.10;;;;;;;2.59;100.00;102093.41;5069238;28;20175;-72
2022/01/11 01:17:32;;;;;;;15.43;8.60;;;;;;;2.57;100.00;102095.50;5069305;28;20213;-72
2022/01/11 01:19:58;;;;;;;11.70;9.07;;;;;;;2.53;100.00;102096.97;5070633;28;20178;-72
2022/01/11 01:22:23;;;;;;;10.37;8.00;;;;;;;2.41;100.00;102096.84;5070483;28;20202;-71
2022/01/11 01:24:49;;;;;;;12.53;9.67;;;;;;;2.39;100.00;102097.06;5068275;28;20182;-72
2022/01/11 01:27:15;;;;;;;9.57;8.57;;;;;;;2.44;100.00;102103.66;5069221;28;20281;-72
2022/01/11 01:29:41;;;;;;;12.00;8.53;;;;;;;2.40;100.00;102097.88;5069114;28;20170;-72
2022/01/11 01:32:08;;;;;;;19.03;10.07;;;;;;;2.25;100.00;102094.66;5070411;28;20650;-72
2022/01/11 01:34:33;;;;;;;13.47;8.23;;;;;;;2.26;100.00;102107.91;5070471;28;20181;-72
2022/01/11 01:36:59;;;;;;;12.13;8.43;;;;;;;2.28;100.00;102105.00;5070262;28;20257;-72
2022/01/11 01:39:25;;;;;;;17.33;9.83;;;;;;;2.32;100.00;102107.06;5070252;28;20166;-72
2022/01/11 01:41:52;;;;;;;10.13;8.13;;;;;;;2.21;100.00;102098.81;5070314;28;20213;-72
2022/01/11 01:44:17;;;;;;;12.07;7.50;;;;;;;2.08;100.00;102103.22;5070287;28;20175;-72
2022/01/11 01:46:43;;;;;;;8.43;7.53;;;;;;;1.96;100.00;102101.41;5070098;28;20645;-72
2022/01/11 01:49:15;;;;;;;9.03;8.13;;;;;;;1.76;100.00;102104.19;5070181;28;20666;-72
2022/01/11 01:51:41;;;;;;;10.07;9.03;;;;;;;1.64;100.00;102106.69;5070299;28;20177;-72
2022/01/11 01:54:06;;;;;;;12.50;8.83;;;;;;;1.35;100.00;102104.47;5070166;28;20267;-72
2022/01/11 01:56:32;;;;;;;13.53;8.47;;;;;;;1.28;100.00;102104.47;5068822;28;20278;-72
2022/01/11 01:58:57;;;;;;;18.97;9.37;;;;;;;1.56;100.00;102112.31;5068984;28;20213;-72
2022/01/11 02:01:23;;;;;;;17.33;9.47;;;;;;;1.67;100.00;102119.75;5068845;28;20206;-72
2022/01/11 02:03:48;;;;;;;10.33;8.57;;;;;;;1.66;100.00;102123.47;5070259;28;20178;-72
2022/01/11 02:06:16;;;;;;;9.00;7.90;;;;;;;1.60;100.00;102118.13;5069960;28;20193;-72
2022/01/11 02:08:48;;;;;;;10.97;7.67;;;;;;;1.44;100.00;102120.19;5068802;28;20174;-72
2022/01/11 02:11:18;;;;;;;13.70;7.83;;;;;;;1.29;100.00;102137.59;5068906;28;20644;-72
2022/01/11 02:13:45;;;;;;;12.70;9.33;;;;;;;1.14;100.00;102122.50;5068474;28;20236;-72
2022/01/11 02:16:12;;;;;;;9.43;7.67;;;;;;;1.16;100.00;102120.44;5069741;28;20181;-72
2022/01/11 02:18:37;;;;;;;11.73;7.73;;;;;;;1.26;100.00;102130.78;5069924;28;20619;-72
2022/01/11 02:21:03;;;;;;;13.47;9.33;;;;;;;1.22;100.00;102136.78;5069830;28;20204;-72
2022/01/11 02:23:29;;;;;;;11.13;7.67;;;;;;;1.12;100.00;102137.19;5068694;28;20193;-72
2022/01/11 02:25:55;;;;;;;9.23;6.90;;;;;;;1.33;100.00;102136.19;5070005;28;20196;-72
2022/01/11 02:28:23;;;;;;;13.90;9.13;;;;;;;1.36;100.00;102138.44;5068582;28;20635;-72
2022/01/11 02:30:50;;;;;;;12.27;8.33;;;;;;;1.43;100.00;102147.34;5068437;28;20278;-72
2022/01/11 02:33:31;;;;;;;11.70;9.10;;;;;;;1.07;100.00;102137.00;5069791;28;20648;-72
2022/01/11 02:35:56;;;;;;;19.50;9.87;;;;;;;1.13;100.00;102142.38;5068649;28;20225;-72
2022/01/11 02:38:22;;;;;;;10.53;8.30;;;;;;;1.42;100.00;102154.59;5072246;28;20186;-72
2022/01/11 02:40:47;;;;;;;10.50;9.20;;;;;;;1.40;100.00;102153.97;5073493;28;20198;-72
2022/01/11 02:43:12;;;;;;;11.97;8.10;;;;;;;1.44;100.00;102148.97;5072191;28;20703;-72
2022/01/11 02:45:38;;;;;;;15.00;8.30;;;;;;;1.03;100.00;102155.44;5073286;28;20635;-72
2022/01/11 02:48:03;;;;;;;10.73;8.67;;;;;;;0.92;100.00;102149.81;5072211;28;20171;-72
2022/01/11 02:50:29;;;;;;;19.10;10.20;;;;;;;0.83;100.00;102144.63;5072417;28;20227;-72
2022/01/11 02:52:54;;;;;;;12.43;9.20;;;;;;;0.83;100.00;102141.94;5073415;28;20186;-72
2022/01/11 02:55:20;;;;;;;13.90;8.60;;;;;;;1.18;100.00;102156.06;5073053;28;20513;-72
2022/01/11 02:57:45;;;;;;;11.77;8.63;;;;;;;1.46;100.00;102168.47;5073076;28;20571;-72
2022/01/11 03:00:17;;;;;;;15.37;8.63;;;;;;;1.44;100.00;102165.97;5073039;28;20178;-73
2022/01/11 03:02:43;;;;;;;12.83;9.00;;;;;;;1.32;100.00;102172.22;5071713;28;20186;-72
2022/01/11 03:05:10;;;;;;;9.77;7.93;;;;;;;1.39;100.00;102168.47;5072895;28;20213;-72
2022/01/11 03:07:35;;;;;;;12.37;8.77;;;;;;;1.62;100.00;102176.13;5072911;28;20171;-72
2022/01/11 03:10:10;;;;;;;8.97;8.07;;;;;;;1.74;100.00;102177.16;5072981;28;20676;-72
2022/01/11 03:12:36;;;;;;;11.83;9.93;;;;;;;1.61;100.00;102169.09;5069474;28;20181;-72
2022/01/11 03:15:01;;;;;;;13.63;8.90;;;;;;;1.80;100.00;102175.47;5074776;28;20529;-72
2022/01/11 03:17:26;;;;;;;11.27;8.80;;;;;;;1.89;100.00;102174.22;5081367;28;20301;-73
2022/01/11 03:19:53;;;;;;;14.27;9.63;;;;;;;1.91;100.00;102188.31;5079341;28;20187;-72
2022/01/11 03:22:19;;;;;;;13.17;8.60;;;;;;;2.05;100.00;102197.19;5071633;28;20260;-72
2022/01/11 03:24:44;;;;;;;12.60;9.43;;;;;;;2.02;100.00;102192.19;5071271;28;20654;-71
2022/01/11 03:27:10;;;;;;;11.50;8.07;;;;;;;1.83;100.00;102193.91;5072895;28;20263;-72
2022/01/11 03:29:37;;;;;;;11.80;8.60;;;;;;;1.97;100.00;102192.84;5071425;28;20174;-72
2022/01/11 03:32:04;;;;;;;9.23;7.80;;;;;;;1.90;100.00;102188.50;5072677;28;20174;-72
2022/01/11 03:34:30;;;;;;;10.23;7.53;;;;;;;1.93;100.00;102185.41;5072687;28;20254;-72
2022/01/11 03:36:57;;;;;;;9.13;7.60;;;;;;;1.99;100.00;102198.00;5072301;28;20196;-72
2022/01/11 03:39:26;;;;;;;13.43;7.83;;;;;;;1.99;100.00;102192.63;5072262;28;20182;-72
2022/01/11 03:41:52;;;;;;;24.33;8.07;;;;;;;1.91;100.00;102199.09;5071210;28;20764;-72
2022/01/11 03:44:17;;;;;;;10.57;8.43;;;;;;;1.57;100.00;102193.94;5071167;28;20174;-73
2022/01/11 03:46:43;;;;;;;11.27;9.03;;;;;;;1.60;100.00;102190.84;5072361;28;20170;-72
2022/01/11 03:49:08;;;;;;;11.57;8.73;;;;;;;1.74;100.00;102187.94;5070364;28;20228;-73
2022/01/11 03:51:37;;;;;;;9.33;7.97;;;;;;;1.81;100.00;102184.38;5071056;28;20178;-73
2022/01/11 03:54:10;;;;;;;12.93;9.97;;;;;;;1.77;100.00;102189.38;5072329;28;20196;-73
2022/01/11 03:56:36;;;;;;;13.73;9.07;;;;;;;1.81;100.00;102195.16;5072206;28;20170;-72
2022/01/11 03:59:06;;;;;;;14.37;8.50;;;;;;;0.98;100.00;102179.41;5070791;28;20171;-73
2022/01/11 04:01:33;;;;;;;12.70;8.70;;;;;;;0.55;100.00;102174.34;5070716;28;20206;-72
2022/01/11 04:03:58;;;;;;;15.10;9.03;;;;;;;0.29;100.00;102171.59;5070815;28;20182;-73
2022/01/11 04:06:25;;;;;;;15.40;8.47;;;;;;;0.21;100.00;102174.44;5070845;28;20232;-72
2022/01/11 04:08:51;;;;;;;10.83;8.70;;;;;;;0.28;100.00;102173.44;5071952;28;20540;-72
2022/01/11 04:11:17;;;;;;;11.33;7.43;;;;;;;0.52;100.00;102182.00;5071919;28;20178;-73
2022/01/11 04:13:43;;;;;;;11.47;8.37;;;;;;;0.77;100.00;102179.59;5072047;28;20179;-72
2022/01/11 04:16:08;;;;;;;8.77;7.57;;;;;;;0.84;100.00;102188.50;5071744;28;20178;-72
2022/01/11 04:18:34;;;;;;;14.27;8.73;;;;;;;0.89;100.00;102194.13;5070587;28;20194;-72
2022/01/11 04:20:59;;;;;;;13.87;8.73;;;;;;;0.51;100.00;102181.19;5070026;28;20210;-72
2022/01/11 04:23:26;;;;;;;19.50;9.20;;;;;;;0.10;100.00;102180.38;5071744;28;20178;-73
2022/01/11 04:25:51;;;;;;;9.97;8.97;;;;;;;0.03;100.00;102180.34;5071592;28;20558;-72
2022/01/11 04:28:17;;;;;;;11.13;8.37;;;;;;;0.08;100.00;102188.63;5071508;28;20185;-73
2022/01/11 04:30:42;;;;;;;12.37;8.57;;;;;;;0.42;100.00;102195.81;5071658;28;20179;-73
2022/01/11 04:33:08;;;;;;;10.97;8.30;;;;;;;0.66;100.00;102188.25;5071488;28;20676;-72
2022/01/11 04:35:33;;;;;;;12.17;8.80;;;;;;;0.64;100.00;102193.00;5071518;28;20179;-72
2022/01/11 04:37:58;;;;;;;13.30;7.87;;;;;;;0.61;100.00;102198.81;5070147;28;20178;-72
2022/01/11 04:40:24;;;;;;;10.10;7.67;;;;;;;0.38;100.00;102191.88;5071181;28;20258;-72
2022/01/11 04:42:49;;;;;;;8.40;7.60;;;;;;;0.45;100.00;102208.06;5071513;28;20204;-72
2022/01/11 04:45:16;;;;;;;10.27;7.90;;;;;;;0.54;100.00;102198.75;5069954;28;20171;-73
2022/01/11 04:47:42;;;;;;;11.03;6.90;;;;;;;0.46;100.00;102204.34;5071009;28;20253;-73
2022/01/11 04:50:09;;;;;;;11.17;6.67;;;;;;;0.30;100.00;102202.81;5071061;28;20413;-72
2022/01/11 04:52:34;;;;;;;15.70;8.90;;;;;;;0.19;100.00;102200.69;5071096;28;20500;-72
2022/01/11 04:55:00;;;;;;;22.87;8.77;;;;;;;-0.05;100.00;102193.94;5070805;28;20500;-72
2022/01/11 04:57:25;;;;;;;14.33;8.47;;;;;;;-0.22;100.00;102208.72;5070873;28;20689;-73
2022/01/11 04:59:50;;;;;;;9.60;7.47;;;;;;;-0.17;100.00;102204.41;5071047;28;20475;-73
2022/01/11 05:02:16;;;;;;;11.43;7.63;;;;;;;0.09;100.00;102210.97;5070993;28;20204;-73
2022/01/11 05:04:41;;;;;;;11.33;7.00;;;;;;;0.01;100.00;102209.28;5070957;28;20254;-73
2022/01/11 05:07:06;;;;;;;9.63;6.90;;;;;;;-0.12;100.00;102196.59;5071158;28;20170;-73
2022/01/11 05:09:32;;;;;;;10.97;7.60;;;;;;;-0.17;100.00;102209.78;5071111;28;20541;-72
2022/01/11 05:11:57;;;;;;;5.70;5.13;;;;;;;-0.21;100.00;102210.38;5070845;28;20642;-72
2022/01/11 05:14:23;;;;;;;11.73;7.80;;;;;;;-0.24;100.00;102205.41;5069461;28;20171;-72
2022/01/11 05:16:48;;;;;;;9.67;6.60;;;;;;;-0.21;100.00;102202.31;5069344;28;20178;-72
2022/01/11 05:19:13;;;;;;;8.83;6.03;;;;;;;-0.20;100.00;102206.66;5070815;28;20676;-72
2022/01/11 05:21:40;;;;;;;9.30;7.67;;;;;;;-0.20;100.00;102212.84;5069279;28;20214;-72
2022/01/11 05:24:07;;;;;;;15.70;8.20;;;;;;;-0.13;100.00;102212.91;5070555;28;20186;-73
2022/01/11 05:26:33;;;;;;;10.20;7.53;;;;;;;0.02;100.00;102220.88;5070488;28;20417;-73
2022/01/11 05:28:58;;;;;;;9.40;7.23;;;;;;;0.11;100.00;102216.97;5070437;28;20421;-72
2022/01/11 05:31:24;;;;;;;8.63;7.57;;;;;;;0.17;100.00;102225.09;5069206;28;20174;-73
2022/01/11 05:33:49;;;;;;;7.83;6.90;;;;;;;0.21;100.00;102229.03;5069341;28;20178;-73
2022/01/11 05:36:15;;;;;;;11.17;6.83;;;;;;;0.26;100.00;102231.09;5070538;28;20178;-72
2022/01/11 05:38:40;;;;;;;8.63;7.33;;;;;;;0.31;100.00;102236.72;5070373;28;20183;-72
2022/01/11 05:41:06;;;;;;;14.10;7.93;;;;;;;0.40;100.00;102235.50;5070409;28;20254;-73
2022/01/11 05:43:31;;;;;;;12.77;8.33;;;;;;;0.48;100.00;102239.91;5070427;28;20205;-73
2022/01/11 05:45:56;;;;;;;12.37;8.77;;;;;;;0.49;100.00;102245.09;5068962;28;20265;-72
2022/01/11 05:48:22;;;;;;;9.10;7.57;;;;;;;0.59;100.00;102248.25;5070313;28;20627;-73
2022/01/11 05:50:48;;;;;;;9.10;7.80;;;;;;;0.63;100.00;102245.16;5070731;28;20174;-72
2022/01/11 05:53:13;;;;;;;9.30;7.67;;;;;;;0.61;100.00;102239.97;5072484;28;20202;-73
2022/01/11 05:55:38;;;;;;;14.20;6.60;;;;;;;0.66;100.00;102244.72;5081992;28;20175;-72
2022/01/11 05:58:04;;;;;;;8.87;6.87;;;;;;;0.61;100.00;102237.28;5074020;28;20255;-72
2022/01/11 06:00:29;;;;;;;8.63;6.43;;;;;;;0.47;100.00;102243.63;5071519;28;20576;-72
2022/01/11 06:02:55;;;;;;;11.03;8.40;;;;;;;0.48;100.00;102238.06;5070941;28;20654;-73
2022/01/11 06:05:23;;;;;;;10.00;7.73;;;;;;;0.49;100.00;102241.56;5070371;28;20638;-72
2022/01/11 06:07:48;;;;;;;10.17;6.60;;;;;;;0.28;100.00;102243.31;5070397;28;20194;-73
2022/01/11 06:10:14;;;;;;;9.03;6.87;;;;;;;0.46;100.00;102245.50;5070505;28;20202;-72
2022/01/11 06:12:40;;;;;;;10.07;7.03;;;;;;;0.43;100.00;102253.09;5073492;28;20174;-73
2022/01/11 06:15:05;;;;;;;11.13;6.23;;;;;;;0.44;100.00;102258.31;5072860;28;20206;-72
2022/01/11 06:17:31;;;;;;;12.63;8.80;;;;;;;0.41;100.00;102256.00;5074063;28;20170;-72
2022/01/11 06:19:56;;;;;;;11.23;7.47;;;;;;;0.45;100.00;102262.66;5074295;28;20183;-72
2022/01/11 06:22:23;;;;;;;10.03;7.47;;;;;;;0.66;100.00;102267.06;5072703;28;20271;-72
2022/01/11 06:24:48;;;;;;;9.10;7.20;;;;;;;0.69;100.00;102265.84;5073872;28;20167;-72
2022/01/11 06:27:14;;;;;;;12.83;7.40;;;;;;;0.70;100.00;102267.50;5074041;28;20177;-72
2022/01/11 06:29:39;;;;;;;8.23;7.37;;;;;;;0.65;100.00;102272.66;5073874;28;20240;-72
2022/01/11 06:32:05;;;;;;;8.00;7.30;;;;;;;0.52;100.00;102266.19;5072592;28;20673;-72
2022/01/11 06:34:30;;;;;;;10.83;6.17;;;;;;;0.50;100.00;102276.31;5072563;28;20210;-72
2022/01/11 06:36:56;;;;;;;9.17;6.60;;;;;;;0.50;100.00;102267.44;5073637;28;20619;-72
2022/01/11 06:39:21;;;;;;;9.80;7.07;;;;;;;0.49;100.00;102265.78;5073727;28;20169;-73
2022/01/11 06:41:47;;;;;;;9.43;7.27;;;;;;;0.41;100.00;102266.75;5073627;28;20268;-73
2022/01/11 06:44:12;;;;;;;8.60;6.27;;;;;;;0.46;100.00;102271.56;5073720;28;20171;-72
2022/01/11 06:46:38;;;;;;;7.87;7.07;;;;;;;0.58;100.00;102268.09;5073566;28;20171;-72
2022/01/11 06:49:04;;;;;;;11.27;6.73;;;;;;;0.64;100.00;102279.06;5073587;28;20249;-72
2022/01/11 06:51:30;;;;;;;10.87;7.57;;;;;;;0.67;100.00;102276.81;5072325;28;20649;-72
2022/01/11 06:53:56;;;;;;;17.63;9.40;;;;;;;0.45;100.00;102277.97;5073501;28;20179;-72
2022/01/11 06:56:22;;;;;;;10.80;7.30;;;;;;;0.21;100.00;102271.19;5071980;28;20232;-72
2022/01/11 06:58:47;;;;;;;15.67;9.33;;;;;;;0.10;100.00;102275.25;5072195;28;20182;-73
2022/01/11 07:01:12;;;;;;;10.57;7.07;;;;;;;-0.13;100.00;102266.63;5073315;28;20205;-72
2022/01/11 07:03:38;;;;;;;10.07;8.60;;;;;;;-0.05;100.00;102269.16;5073420;28;20222;-73
2022/01/11 07:06:04;;;;;;;9.40;7.13;;;;;;;0.26;100.00;102277.63;5072035;28;20166;-72
2022/01/11 07:08:29;;;;;;;18.50;11.43;;;;;;;-0.07;100.00;102282.78;5071901;28;20247;-72
2022/01/11 07:10:54;;;;;;;24.53;12.20;;;;;;;0.16;100.00;102290.59;5073243;28;20206;-72
2022/01/11 07:13:20;;;;;;;12.77;8.17;;;;;;;-0.07;100.00;102293.53;5071832;28;20630;-72
2022/01/11 07:15:46;;;;;;;12.90;8.73;;;;;;;0.02;100.00;102301.47;5072994;28;20627;-71
2022/01/11 07:18:12;;;;;;;9.43;7.57;;;;;;;-0.11;100.00;102294.97;5071788;28;20177;-72
2022/01/11 07:20:42;;;;;;;12.00;8.80;;;;;;;0.24;100.00;102311.09;5072994;28;20651;-72
2022/01/11 07:23:07;;;;;;;9.43;7.63;;;;;;;0.45;100.00;102313.75;5071679;28;21034;-72
2022/01/11 07:25:33;;;;;;;16.00;9.27;;;;;;;0.59;100.00;102326.22;5072637;28;20265;-71
2022/01/11 07:27:59;;;;;;;8.03;7.23;;;;;;;0.46;100.00;102323.47;5073059;28;20179;-72
2022/01/11 07:30:25;;;;;;;11.50;8.67;;;;;;;0.59;100.00;102322.72;5071315;28;20520;-72
2022/01/11 07:32:50;;;;;;;8.80;7.70;;;;;;;0.64;100.00;102319.41;5072653;28;20262;-72
2022/01/11 07:35:16;;;;;;;10.40;7.50;;;;;;;0.69;100.00;102328.53;5071151;28;20694;-72
2022/01/11 07:37:41;;;;;;;8.23;7.23;;;;;;;0.65;100.00;102334.53;5072404;28;20175;-75
2022/01/11 07:40:08;;;;;;;11.90;8.63;;;;;;;0.60;100.00;102332.44;5071140;28;20175;-75
2022/01/11 07:42:33;;;;;;;9.10;7.50;;;;;;;0.68;100.00;102326.03;5072229;28;20206;-71
2022/01/11 07:44:58;;;;;;;9.37;7.87;;;;;;;0.80;100.00;102327.16;5072258;28;20200;-72
2022/01/11 07:47:24;;;;;;;11.53;8.03;;;;;;;0.75;100.00;102326.94;5072618;28;20210;-72
2022/01/11 07:49:49;;;;;;;10.77;7.17;;;;;;;0.83;100.00;102334.81;5072445;28;20181;-72
2022/01/11 07:52:15;;;;;;;13.83;7.47;;;;;;;0.91;100.00;102331.97;5070059;28;20185;-73
2022/01/11 07:54:41;;;;;;;7.57;6.77;;;;;;;0.95;100.00;102338.59;5067521;28;20231;-73
2022/01/11 07:57:07;;;;;;;14.53;7.60;;;;;;;0.93;100.00;102337.13;5067902;28;20674;-73
2022/01/11 07:59:32;;;;;;;14.37;7.23;;;;;;;0.95;100.00;102340.47;5080629;28;20633;-73
2022/01/11 08:01:59;;;;;;;8.90;7.70;;;;;;;0.89;100.00;102336.72;5070886;28;20207;-73
2022/01/11 08:04:26;;;;;;;11.60;8.57;;;;;;;0.84;100.00;102339.16;5072090;28;20546;-73
2022/01/11 08:06:52;;;;;;;16.37;8.60;;;;;;;0.80;100.00;102344.13;5070783;28;20179;-73
2022/01/11 08:09:18;;;;;;;10.17;8.63;;;;;;;0.94;100.00;102342.31;5070672;28;20634;-73
2022/01/11 08:11:44;;;;;;;13.63;8.80;;;;;;;0.91;100.00;102352.66;5070731;28;20634;-73
2022/01/11 08:14:09;;;;;;;10.33;8.50;;;;;;;0.93;100.00;102354.13;5070719;28;20170;-73
2022/01/11 08:16:35;;;;;;;14.97;9.53;;;;;;;1.06;100.00;102359.56;5070504;28;20174;-73
2022/01/11 08:19:00;;;;;;;12.97;8.53;;;;;;;1.08;100.00;102356.66;5070639;28;20186;-73
2022/01/11 08:21:26;;;;;;;7.97;7.17;;;;;;;1.16;100.00;102369.94;5071746;28;20247;-72
2022/01/11 08:23:51;;;;;;;9.43;7.73;;;;;;;1.19;100.00;102367.69;5070366;28;20190;-73
2022/01/11 08:26:16;;;;;;;14.07;12.63;;;;;;;0.85;100.00;102365.84;5070207;28;20186;-73
2022/01/11 08:28:44;;;;;;;42.60;21.63;;;;;;;0.45;100.00;102364.00;5070274;28;20244;-73
2022/01/11 08:31:10;;;;;;;17.60;9.37;;;;;;;0.31;100.00;102357.69;5071746;28;20644;-72
2022/01/11 08:33:35;;;;;;;16.00;7.93;;;;;;;0.03;100.00;102351.47;5070281;28;20170;-72
2022/01/11 08:36:01;;;;;;;14.87;7.27;;;;;;;0.04;100.00;102358.50;5071280;28;20646;-72
2022/01/11 08:38:27;;;;;;;7.60;6.73;;;;;;;0.02;100.00;102356.03;5070239;28;20205;-72
2022/01/11 08:40:52;;;;;;;6.07;5.13;;;;;;;-0.01;100.00;102359.91;5071245;28;20268;-72
2022/01/11 08:43:18;;;;;;;7.13;6.40;;;;;;;0.03;100.00;102363.06;5071603;28;20170;-73
2022/01/11 08:45:43;;;;;;;8.23;6.23;;;;;;;0.09;100.00;102362.28;5070021;28;20197;-74
2022/01/11 08:48:08;;;;;;;8.13;6.83;;;;;;;0.11;100.00;102354.84;5070018;28;20200;-73
2022/01/11 08:50:34;;;;;;;8.33;7.33;;;;;;;0.25;100.00;102358.47;5071331;28;20190;-74
2022/01/11 08:52:59;;;;;;;8.40;7.13;;;;;;;0.25;100.00;102366.53;5070032;28;20171;-73
2022/01/11 08:55:25;;;;;;;9.97;7.07;;;;;;;0.30;100.00;102361.41;5070987;28;20907;-73
2022/01/11 08:57:51;;;;;;;10.20;8.10;;;;;;;0.31;100.00;102363.06;5069836;28;20176;-72
2022/01/11 09:00:18;;;;;;;10.43;7.87;;;;;;;0.41;100.00;102366.22;5071561;28;20613;-75
2022/01/11 09:02:45;;;;;;;18.97;7.00;;;;;;;0.42;100.00;102365.19;5070947;28;20919;-72
2022/01/11 09:05:11;;;;;;;9.77;7.00;;;;;;;0.44;100.00;102382.00;5069534;28;20420;-72
2022/01/11 09:07:36;;;;;;;15.90;8.10;;;;;;;0.55;100.00;102383.28;5070950;28;20590;-72
2022/01/11 09:10:03;;;;;;;8.43;7.03;;;;;;;0.60;100.00;102372.78;5069682;28;20186;-73
2022/01/11 09:12:29;;;;;;;10.30;8.10;;;;;;;0.50;100.00;102381.19;5069535;28;20681;-72
2022/01/11 09:14:54;;;;;;;8.93;7.17;;;;;;;0.56;100.00;102376.88;5070266;28;20417;-72
2022/01/11 09:17:19;;;;;;;9.80;7.80;;;;;;;0.66;100.00;102374.66;5069596;28;20273;-72
2022/01/11 09:19:45;;;;;;;13.37;7.17;;;;;;;0.63;100.00;102375.06;5069414;28;20205;-72
2022/01/11 09:22:10;;;;;;;8.73;7.50;;;;;;;0.75;100.00;102386.94;5069373;28;20304;-72
2022/01/11 09:24:36;;;;;;;11.73;7.47;;;;;;;0.79;100.00;102381.97;5069000;28;20194;-72
2022/01/11 09:27:04;;;;;;;12.53;8.10;;;;;;;0.64;100.00;102378.59;5069214;28;20244;-72
2022/01/11 09:29:33;;;;;;;11.63;7.67;;;;;;;0.71;100.00;102387.50;5070593;28;20654;-72
2022/01/11 09:32:00;;;;;;;8.77;7.43;;;;;;;0.85;100.00;102391.94;5070423;28;20174;-72
2022/01/11 09:34:27;;;;;;;9.00;7.80;;;;;;;0.80;100.00;102397.91;5069224;28;20190;-72
2022/01/11 09:36:52;;;;;;;18.07;7.20;;;;;;;0.80;100.00;102394.41;5070232;28;20673;-72
2022/01/11 09:39:18;;;;;;;12.10;9.27;;;;;;;0.85;100.00;102386.56;5070090;28;20175;-72
2022/01/11 09:41:44;;;;;;;21.47;8.80;;;;;;;0.78;100.00;102383.00;5069161;28;20229;-72
2022/01/11 09:44:09;;;;;;;11.90;8.77;;;;;;;0.61;100.00;102382.50;5070437;28;20262;-72
2022/01/11 09:46:35;;;;;;;9.10;8.17;;;;;;;0.59;100.00;102380.00;5068545;28;20179;-72
2022/01/11 09:49:01;;;;;;;12.03;9.33;;;;;;;0.65;100.00;102380.25;5070570;28;20182;-72
2022/01/11 09:51:26;;;;;;;14.43;8.33;;;;;;;0.69;100.00;102378.81;5070470;28;20248;-72
2022/01/11 09:53:53;;;;;;;22.60;8.53;;;;;;;0.76;100.00;102380.53;5068959;28;20179;-72
2022/01/11 09:56:19;;;;;;;20.63;8.33;;;;;;;0.65;100.00;102378.38;5068978;28;20635;-72
2022/01/11 09:58:45;;;;;;;12.90;7.60;;;;;;;0.79;100.00;102379.28;5069105;28;20423;-72
2022/01/11 10:01:11;;;;;;;12.47;8.43;;;;;;;0.80;100.00;102372.88;5070209;28;20240;-72
2022/01/11 10:03:58;;;;;;;18.90;10.13;;;;;;;0.83;100.00;102375.16;5069022;28;20808;-72
2022/01/11 10:06:25;;;;;;;13.50;7.53;;;;;;;0.89;100.00;102377.06;5068414;28;20619;-72
2022/01/11 10:08:51;;;;;;;21.20;9.13;;;;;;;0.85;100.00;102373.94;5070298;28;20549;-72
2022/01/11 10:11:40;;;;;;;10.50;9.13;;;;;;;1.12;100.00;102382.13;5070227;28;20452;-72
2022/01/11 10:14:34;;;;;;;15.43;9.33;;;;;;;0.98;100.00;102378.56;5070273;28;20176;-72
2022/01/11 10:17:15;;;;;;;19.50;8.67;;;;;;;1.08;100.00;102368.25;5070076;28;20167;-72
2022/01/11 10:19:49;;;;;;;10.40;7.60;;;;;;;0.89;100.00;102364.44;5070216;28;20680;-72
2022/01/11 10:22:20;;;;;;;8.63;7.70;;;;;;;0.94;100.00;102373.78;5070077;28;20305;-72
2022/01/11 10:24:48;;;;;;;16.80;7.40;;;;;;;0.74;100.00;102371.81;5068289;28;20554;-72
2022/01/11 10:27:25;;;;;;;11.53;8.37;;;;;;;0.87;100.00;102376.44;5068444;28;20250;-72
2022/01/11 10:30:14;;;;;;;15.97;7.80;;;;;;;0.80;100.00;102359.44;5068815;28;20421;-72
2022/01/11 10:32:42;;;;;;;12.13;8.50;;;;;;;1.05;100.00;102365.97;5063256;28;20186;-72
2022/01/11 10:35:08;;;;;;;13.20;7.00;;;;;;;1.12;100.00;102361.44;5069944;28;20244;-72
2022/01/11 10:37:36;;;;;;;17.93;8.63;;;;;;;0.92;100.00;102357.00;5069927;28;20633;-72
2022/01/11 10:40:18;;;;;;;12.57;7.40;;;;;;;0.92;100.00;102363.22;5068724;28;20252;-73
2022/01/11 10:42:56;;;;;;;23.13;8.83;;;;;;;1.12;100.00;102371.38;5070278;28;20217;-72
2022/01/11 10:45:24;;;;;;;9.70;8.73;;;;;;;1.11;100.00;102361.63;5069719;28;20179;-72
2022/01/11 10:48:02;;;;;;;24.30;8.83;;;;;;;1.24;100.00;102367.06;5069474;28;20639;-72
2022/01/11 10:50:34;;;;;;;12.57;9.40;;;;;;;1.29;100.00;102369.16;5068442;28;20190;-73
2022/01/11 10:53:03;;;;;;;12.23;7.33;;;;;;;1.04;100.00;102361.63;5068446;28;20273;-72
2022/01/11 10:55:30;;;;;;;20.73;7.93;;;;;;;1.09;100.00;102364.53;5069384;28;20251;-72
2022/01/11 10:57:59;;;;;;;13.60;8.67;;;;;;;1.00;100.00;102368.41;5070013;28;20452;-72
2022/01/11 11:00:37;;;;;;;12.77;7.93;;;;;;;0.98;100.00;102366.97;5072901;28;20268;-72
2022/01/11 11:03:18;;;;;;;13.40;8.97;;;;;;;0.89;100.00;102366.31;5071804;28;20198;-73
2022/01/11 11:05:48;;;;;;;13.83;8.63;;;;;;;0.86;100.00;102378.28;5071525;28;20416;-72
2022/01/11 11:08:26;;;;;;;11.27;8.07;;;;;;;0.90;100.00;102376.03;5073005;28;20175;-73
2022/01/11 11:11:04;;;;;;;10.77;8.30;;;;;;;0.87;100.00;102377.28;5072825;28;20424;-72
2022/01/11 11:13:39;;;;;;;17.37;8.13;;;;;;;0.86;100.00;102377.44;5072916;28;20420;-72
2022/01/11 11:16:15;;;;;;;15.57;9.47;;;;;;;0.89;100.00;102375.22;5072598;28;20427;-72
2022/01/11 11:18:54;;;;;;;12.67;8.60;;;;;;;0.89;100.00;102383.28;5072853;28;20413;-72
2022/01/11 11:21:25;;;;;;;10.93;8.23;;;;;;;0.98;100.00;102380.41;5072627;28;20209;-72